createdAt,value
2019-03-02T00:00:37.831Z,7.70
2019-03-02T00:03:05.908Z,7.70
2019-03-02T00:05:35.102Z,7.70
2019-03-02T00:08:04.273Z,7.70
2019-03-02T00:10:33.471Z,7.70
2019-03-02T00:13:03.862Z,7.70
2019-03-02T00:15:33.540Z,7.80
2019-03-02T00:18:02.713Z,7.80
2019-03-02T00:20:31.894Z,7.80
2019-03-02T00:23:01.094Z,7.80
2019-03-02T00:25:30.736Z,7.80
2019-03-02T00:28:01.174Z,7.80
2019-03-02T00:30:30.386Z,7.80
2019-03-02T00:32:59.558Z,7.80
2019-03-02T00:35:28.761Z,7.80
2019-03-02T00:37:57.933Z,7.80
2019-03-02T00:40:30.012Z,7.80
2019-03-02T00:42:58.002Z,7.70
2019-03-02T00:45:27.189Z,7.70
2019-03-02T00:47:56.370Z,7.70
2019-03-02T00:50:25.562Z,7.70
2019-03-02T00:52:55.722Z,7.70
2019-03-02T00:55:28.450Z,7.70
2019-03-02T00:57:56.494Z,7.70
2019-03-02T01:00:25.984Z,7.70
2019-03-02T01:02:55.156Z,7.70
2019-03-02T01:05:24.419Z,7.70
2019-03-02T01:07:56.139Z,7.70
2019-03-02T01:10:25.031Z,7.70
2019-03-02T01:12:54.473Z,7.70
2019-03-02T01:15:23.675Z,7.80
2019-03-02T01:17:52.862Z,7.80
2019-03-02T01:20:24.882Z,7.80
2019-03-02T01:22:52.945Z,7.80
2019-03-02T01:25:22.113Z,7.80
2019-03-02T01:27:51.308Z,7.80
2019-03-02T01:30:20.755Z,7.70
2019-03-02T01:32:52.666Z,7.70
2019-03-02T01:35:21.733Z,7.60
2019-03-02T01:37:51.060Z,7.50
2019-03-02T01:40:20.237Z,7.50
2019-03-02T01:42:49.430Z,7.40
2019-03-02T01:45:19.078Z,7.40
2019-03-02T01:47:51.221Z,7.40
2019-03-02T01:50:19.198Z,7.40
2019-03-02T01:52:48.405Z,7.30
2019-03-02T01:55:17.639Z,7.40
2019-03-02T01:57:48.813Z,7.30
2019-03-02T02:00:23.085Z,7.40
2019-03-02T02:02:52.292Z,7.40
2019-03-02T02:05:21.515Z,7.40
2019-03-02T02:07:54.056Z,7.40
2019-03-02T02:10:21.790Z,7.30
2019-03-02T02:12:51.059Z,7.30
2019-03-02T02:15:25.864Z,7.30
2019-03-02T02:17:55.222Z,7.40
2019-03-02T02:20:24.453Z,7.40
2019-03-02T02:22:53.651Z,7.40
2019-03-02T02:25:23.059Z,7.50
2019-03-02T02:27:54.851Z,7.60
2019-03-02T02:30:28.065Z,7.70
2019-03-02T02:33:04.288Z,7.70
2019-03-02T02:35:28.459Z,7.80
2019-03-02T02:37:57.709Z,7.80
2019-03-02T02:40:27.146Z,7.90
2019-03-02T02:42:56.372Z,7.90
2019-03-02T02:45:25.576Z,7.90
2019-03-02T02:47:54.869Z,8.00
2019-03-02T02:50:29.364Z,8.00
2019-03-02T02:52:55.002Z,8.10
2019-03-02T02:55:24.212Z,8.10
2019-03-02T02:57:53.446Z,8.10
2019-03-02T03:00:27.383Z,8.10
2019-03-02T03:02:56.812Z,8.10
2019-03-02T03:05:27.959Z,8.10
2019-03-02T03:07:57.164Z,8.20
2019-03-02T03:10:30.975Z,8.20
2019-03-02T03:13:02.225Z,8.30
2019-03-02T03:15:37.119Z,8.30
2019-03-02T03:18:11.742Z,8.30
2019-03-02T03:20:37.728Z,8.20
2019-03-02T03:23:06.926Z,8.20
2019-03-02T03:25:36.143Z,8.20
2019-03-02T03:28:05.546Z,8.10
2019-03-02T03:30:38.886Z,8.00
2019-03-02T03:33:05.677Z,7.90
2019-03-02T03:35:34.912Z,7.90
2019-03-02T03:38:04.800Z,7.80
2019-03-02T03:40:33.996Z,7.70
2019-03-02T03:43:04.767Z,7.70
2019-03-02T03:45:42.151Z,7.70
2019-03-02T03:48:05.141Z,7.80
2019-03-02T03:50:34.364Z,7.80
2019-03-02T03:53:03.594Z,7.80
2019-03-02T03:55:33.064Z,7.80
2019-03-02T03:58:02.696Z,7.80
2019-03-02T04:00:34.037Z,7.80
2019-03-02T04:03:03.004Z,7.90
2019-03-02T04:05:32.231Z,8.00
2019-03-02T04:08:01.455Z,8.10
2019-03-02T04:10:30.748Z,8.20
2019-03-02T04:13:04.931Z,8.30
2019-03-02T04:15:31.116Z,8.30
2019-03-02T04:18:00.320Z,8.40
2019-03-02T04:20:32.718Z,8.50
2019-03-02T04:23:05.396Z,8.50
2019-03-02T04:25:34.625Z,8.60
2019-03-02T04:28:03.847Z,8.70
2019-03-02T04:30:33.079Z,8.70
2019-03-02T04:33:06.013Z,8.70
2019-03-02T04:35:33.706Z,8.70
2019-03-02T04:38:04.313Z,8.60
2019-03-02T04:40:33.516Z,8.70
2019-03-02T04:43:02.739Z,8.70
2019-03-02T04:45:31.971Z,8.70
2019-03-02T04:48:03.314Z,8.70
2019-03-02T04:50:32.119Z,8.80
2019-03-02T04:53:01.357Z,8.80
2019-03-02T04:55:30.584Z,8.90
2019-03-02T04:57:59.807Z,8.90
2019-03-02T05:00:31.984Z,8.90
2019-03-02T05:02:59.936Z,8.90
2019-03-02T05:05:29.140Z,8.90
2019-03-02T05:07:58.365Z,8.90
2019-03-02T05:10:28.657Z,8.90
2019-03-02T05:12:58.488Z,9.00
2019-03-02T05:15:28.807Z,9.00
2019-03-02T05:17:58.012Z,9.00
2019-03-02T05:20:27.246Z,9.00
2019-03-02T05:22:56.449Z,9.00
2019-03-02T05:25:25.675Z,9.00
2019-03-02T05:27:54.906Z,9.00
2019-03-02T05:30:26.868Z,9.00
2019-03-02T05:32:55.044Z,9.00
2019-03-02T05:35:24.248Z,9.00
2019-03-02T05:37:53.492Z,9.00
2019-03-02T05:40:24.431Z,9.00
2019-03-02T05:42:53.665Z,9.00
2019-03-02T05:45:23.896Z,9.00
2019-03-02T05:47:53.787Z,9.00
2019-03-02T05:50:23.033Z,9.00
2019-03-02T05:52:54.287Z,9.00
2019-03-02T05:55:23.487Z,9.00
2019-03-02T05:57:52.692Z,8.90
2019-03-02T06:00:23.403Z,8.90
2019-03-02T06:02:52.615Z,8.80
2019-03-02T06:05:21.839Z,8.80
2019-03-02T06:07:53.843Z,8.80
2019-03-02T06:10:25.394Z,8.80
2019-03-02T06:12:53.087Z,8.80
2019-03-02T06:15:22.376Z,8.80
2019-03-02T06:17:51.583Z,8.80
2019-03-02T06:20:20.810Z,8.80
2019-03-02T06:22:52.418Z,8.80
2019-03-02T06:25:22.911Z,8.80
2019-03-02T06:27:51.850Z,8.80
2019-03-02T06:30:22.863Z,8.80
2019-03-02T06:32:52.211Z,8.80
2019-03-02T06:35:21.417Z,8.80
2019-03-02T06:37:53.004Z,8.80
2019-03-02T06:40:23.714Z,8.90
2019-03-02T06:42:54.057Z,8.90
2019-03-02T06:45:23.471Z,9.00
2019-03-02T06:47:54.780Z,9.00
2019-03-02T06:50:23.608Z,9.00
2019-03-02T06:52:52.839Z,9.10
2019-03-02T06:55:24.492Z,9.10
2019-03-02T06:57:53.236Z,9.10
2019-03-02T07:00:25.176Z,9.10
2019-03-02T07:02:54.387Z,9.10
2019-03-02T07:05:23.616Z,9.10
2019-03-02T07:07:53.707Z,9.20
2019-03-02T07:10:24.024Z,9.20
2019-03-02T07:12:54.898Z,9.30
2019-03-02T07:15:24.123Z,9.20
2019-03-02T07:18:08.000Z,9.20
2019-03-02T07:20:41.761Z,9.30
2019-03-02T07:23:11.242Z,9.30
2019-03-02T07:25:44.044Z,9.30
2019-03-02T07:28:11.427Z,9.40
2019-03-02T07:30:40.837Z,9.40
2019-03-02T07:33:10.164Z,9.40
2019-03-02T07:35:39.411Z,9.40
2019-03-02T07:38:08.892Z,9.40
2019-03-02T07:40:41.353Z,9.50
2019-03-02T07:43:09.652Z,9.50
2019-03-02T07:45:39.788Z,9.60
2019-03-02T07:48:08.988Z,9.60
2019-03-02T07:50:38.211Z,9.60
2019-03-02T07:53:07.458Z,9.70
2019-03-02T07:55:36.657Z,9.60
2019-03-02T07:58:05.876Z,9.50
2019-03-02T08:00:37.847Z,9.40
2019-03-02T08:03:06.313Z,9.30
2019-03-02T08:05:35.520Z,9.20
2019-03-02T08:08:06.928Z,9.10
2019-03-02T08:10:38.723Z,9.00
2019-03-02T08:13:06.581Z,9.00
2019-03-02T08:15:35.780Z,9.10
2019-03-02T08:18:05.084Z,9.10
2019-03-02T08:20:35.379Z,9.10
2019-03-02T08:23:04.608Z,9.20
2019-03-02T08:25:33.811Z,9.30
2019-03-02T08:28:03.026Z,9.50
2019-03-02T08:30:33.450Z,9.60
2019-03-02T08:33:03.509Z,9.60
2019-03-02T08:35:32.824Z,9.70
2019-03-02T08:38:05.320Z,9.60
2019-03-02T08:40:33.046Z,9.60
2019-03-02T08:43:02.516Z,9.50
2019-03-02T08:45:31.902Z,9.60
2019-03-02T08:48:01.240Z,9.70
2019-03-02T08:50:30.477Z,9.80
2019-03-02T08:52:59.747Z,9.90
2019-03-02T08:55:29.834Z,9.90
2019-03-02T08:57:59.969Z,10.00
2019-03-02T09:00:30.603Z,9.90
2019-03-02T09:03:00.478Z,9.60
2019-03-02T09:05:43.618Z,9.30
2019-03-02T09:08:00.915Z,9.00
2019-03-02T09:10:30.118Z,9.00
2019-03-02T09:12:59.822Z,9.00
2019-03-02T09:15:31.658Z,9.10
2019-03-02T09:18:00.916Z,9.20
2019-03-02T09:20:32.371Z,9.20
2019-03-02T09:23:01.651Z,9.20
2019-03-02T09:25:31.062Z,9.20
2019-03-02T09:28:00.259Z,9.20
2019-03-02T09:30:29.487Z,9.20
2019-03-02T09:32:58.999Z,9.20
2019-03-02T09:35:28.205Z,9.40
2019-03-02T09:37:57.503Z,9.60
2019-03-02T09:40:27.108Z,9.70
2019-03-02T09:42:56.339Z,9.80
2019-03-02T09:45:25.550Z,9.70
2019-03-02T09:47:54.791Z,9.80
2019-03-02T09:50:25.139Z,9.80
2019-03-02T09:52:55.882Z,9.90
2019-03-02T09:55:25.230Z,10.00
2019-03-02T09:57:54.476Z,9.90
2019-03-02T10:00:28.330Z,9.90
2019-03-02T10:02:57.561Z,9.90
2019-03-02T10:05:26.758Z,9.90
2019-03-02T10:07:56.167Z,10.00
2019-03-02T10:10:29.103Z,10.00
2019-03-02T10:12:56.451Z,9.90
2019-03-02T10:15:32.267Z,10.00
2019-03-02T10:18:01.472Z,10.10
2019-03-02T10:20:30.712Z,10.10
2019-03-02T10:23:02.115Z,10.10
2019-03-02T10:25:32.237Z,10.20
2019-03-02T10:28:01.823Z,10.20
2019-03-02T10:30:31.115Z,10.40
2019-03-02T10:33:00.368Z,10.40
2019-03-02T10:35:29.642Z,10.60
2019-03-02T10:37:58.883Z,10.80
2019-03-02T10:40:28.126Z,11.00
2019-03-02T10:42:58.431Z,11.10
2019-03-02T10:45:27.644Z,11.30
2019-03-02T10:47:57.957Z,11.50
2019-03-02T10:50:30.509Z,11.70
2019-03-02T10:52:59.800Z,11.80
2019-03-02T10:55:29.048Z,11.90
2019-03-02T10:57:59.049Z,12.10
2019-03-02T11:00:31.286Z,12.30
2019-03-02T11:03:03.575Z,12.30
2019-03-02T11:05:34.523Z,12.40
2019-03-02T11:08:05.444Z,12.40
2019-03-02T11:10:53.749Z,12.40
2019-03-02T11:13:36.738Z,12.30
2019-03-02T11:16:25.128Z,12.10
2019-03-02T11:18:56.305Z,12.30
2019-03-02T11:21:34.771Z,12.50
2019-03-02T11:24:18.197Z,12.60
2019-03-02T11:26:52.036Z,12.60
2019-03-02T11:29:37.919Z,12.70
2019-03-02T11:32:11.859Z,12.80
2019-03-02T11:34:42.737Z,12.90
2019-03-02T11:37:31.642Z,13.00
2019-03-02T11:40:05.225Z,12.90
2019-03-02T11:42:48.075Z,12.80
2019-03-02T11:45:29.311Z,12.90
2019-03-02T11:48:00.512Z,13.00
2019-03-02T11:50:51.019Z,13.10
2019-03-02T11:53:24.099Z,13.20
2019-03-02T11:56:03.066Z,13.20
2019-03-02T11:58:50.287Z,13.20
2019-03-02T12:01:21.163Z,13.20
2019-03-02T12:04:04.313Z,13.10
2019-03-02T12:06:40.875Z,13.20
2019-03-02T12:09:16.005Z,13.20
2019-03-02T12:11:48.242Z,13.20
2019-03-02T12:14:28.544Z,13.30
2019-03-02T12:17:14.582Z,13.40
2019-03-02T12:19:48.138Z,13.50
2019-03-02T12:22:21.682Z,13.60
2019-03-02T12:25:09.115Z,13.60
2019-03-02T12:27:45.984Z,13.50
2019-03-02T12:30:32.222Z,13.30
2019-03-02T12:33:03.064Z,13.10
2019-03-02T12:35:40.347Z,12.90
2019-03-02T12:38:20.971Z,12.80
2019-03-02T12:40:51.846Z,12.80
2019-03-02T12:43:22.711Z,12.80
2019-03-02T12:45:53.587Z,12.70
2019-03-02T12:48:30.444Z,12.50
2019-03-02T12:51:02.859Z,12.50
2019-03-02T12:53:36.788Z,12.40
2019-03-02T12:56:13.504Z,12.40
2019-03-02T12:59:02.733Z,12.40
2019-03-02T13:01:37.631Z,12.50
2019-03-02T13:04:21.555Z,12.80
2019-03-02T13:06:54.936Z,13.00
2019-03-02T13:09:25.794Z,13.40
2019-03-02T13:12:02.009Z,13.60
2019-03-02T13:14:38.803Z,13.90
2019-03-02T13:17:26.408Z,14.10
2019-03-02T13:20:02.862Z,14.30
2019-03-02T13:22:36.691Z,14.40
2019-03-02T13:25:21.612Z,14.50
2019-03-02T13:27:56.897Z,14.60
2019-03-02T13:30:29.500Z,14.60
2019-03-02T13:33:00.652Z,14.70
2019-03-02T13:35:31.504Z,14.50
2019-03-02T13:38:02.381Z,14.30
2019-03-02T13:40:35.975Z,14.20
2019-03-02T13:43:09.468Z,13.80
2019-03-02T13:45:46.352Z,13.40
2019-03-02T13:48:17.807Z,13.10
2019-03-02T13:50:53.679Z,12.90
2019-03-02T13:53:25.912Z,12.90
2019-03-02T13:55:56.755Z,13.00
2019-03-02T13:58:33.326Z,13.10
2019-03-02T14:01:10.483Z,13.40
2019-03-02T14:03:46.882Z,13.50
2019-03-02T14:06:33.219Z,13.60
2019-03-02T14:09:16.167Z,13.80
2019-03-02T14:11:55.737Z,13.80
2019-03-02T14:14:44.855Z,13.90
2019-03-02T14:17:26.375Z,13.90
2019-03-02T14:19:57.225Z,13.70
2019-03-02T14:22:33.871Z,13.40
2019-03-02T14:25:05.118Z,13.20
2019-03-02T14:27:47.793Z,13.10
2019-03-02T14:30:21.364Z,13.00
2019-03-02T14:32:51.968Z,12.90
2019-03-02T14:35:26.578Z,12.90
2019-03-02T14:38:09.439Z,13.00
2019-03-02T14:40:51.283Z,13.00
2019-03-02T14:43:30.638Z,13.00
2019-03-02T14:46:01.723Z,13.20
2019-03-02T14:48:32.647Z,13.40
2019-03-02T14:51:16.948Z,13.50
2019-03-02T14:53:54.090Z,13.60
2019-03-02T14:56:44.827Z,13.80
2019-03-02T14:59:17.039Z,13.90
2019-03-02T15:01:59.961Z,14.10
2019-03-02T15:04:48.096Z,14.20
2019-03-02T15:07:22.163Z,14.30
2019-03-02T15:10:03.642Z,14.30
2019-03-02T15:12:52.392Z,14.30
2019-03-02T15:15:27.954Z,14.30
2019-03-02T15:18:11.052Z,14.30
2019-03-02T15:20:56.947Z,14.20
2019-03-02T15:23:30.316Z,14.20
2019-03-02T15:26:02.179Z,14.10
2019-03-02T15:28:37.586Z,14.00
2019-03-02T15:31:07.079Z,13.90
2019-03-02T15:33:53.486Z,13.80
2019-03-02T15:36:39.589Z,13.80
2019-03-02T15:39:12.833Z,13.70
2019-03-02T15:41:46.095Z,13.70
2019-03-02T15:44:22.535Z,13.60
2019-03-02T15:47:13.623Z,13.60
2019-03-02T15:49:48.720Z,13.60
2019-03-02T15:52:22.602Z,13.50
2019-03-02T15:54:59.290Z,13.40
2019-03-02T15:57:39.688Z,13.40
2019-03-02T16:00:26.543Z,13.30
2019-03-02T16:03:00.259Z,13.20
2019-03-02T16:05:44.142Z,13.10
2019-03-02T16:08:17.974Z,13.00
2019-03-02T16:10:54.064Z,13.00
2019-03-02T16:13:24.904Z,12.90
2019-03-02T16:16:01.790Z,12.90
2019-03-02T16:18:41.638Z,12.90
2019-03-02T16:21:31.346Z,12.90
2019-03-02T16:24:05.128Z,12.90
2019-03-02T16:26:35.999Z,12.80
2019-03-02T16:29:14.999Z,12.80
2019-03-02T16:32:02.073Z,12.70
2019-03-02T16:34:32.908Z,12.70
2019-03-02T16:37:18.487Z,12.60
2019-03-02T16:40:04.467Z,12.60
2019-03-02T16:42:38.032Z,12.60
2019-03-02T16:45:11.536Z,12.50
2019-03-02T16:47:42.476Z,12.40
2019-03-02T16:50:16.889Z,12.40
2019-03-02T16:52:53.249Z,12.30
2019-03-02T16:55:27.004Z,12.30
2019-03-02T16:58:03.818Z,12.30
2019-03-02T17:00:37.720Z,12.20
2019-03-02T17:03:16.469Z,12.20
2019-03-02T17:05:47.341Z,12.20
2019-03-02T17:08:18.449Z,12.10
2019-03-02T17:10:52.439Z,12.00
2019-03-02T17:13:27.764Z,12.00
2019-03-02T17:16:04.385Z,12.00
2019-03-02T17:18:35.252Z,11.90
2019-03-02T17:21:10.395Z,11.90
2019-03-02T17:23:57.680Z,11.80
2019-03-02T17:26:28.539Z,11.80
2019-03-02T17:29:15.520Z,11.80
2019-03-02T17:31:52.211Z,11.80
2019-03-02T17:34:25.738Z,11.70
2019-03-02T17:37:12.104Z,11.60
2019-03-02T17:39:45.675Z,11.60
2019-03-02T17:42:32.798Z,11.60
2019-03-02T17:45:07.045Z,11.60
2019-03-02T17:47:40.902Z,11.60
2019-03-02T17:50:11.765Z,11.40
2019-03-02T17:52:43.217Z,11.40
2019-03-02T17:55:14.154Z,11.30
2019-03-02T17:57:56.168Z,11.30
2019-03-02T18:00:30.148Z,11.30
2019-03-02T18:03:18.333Z,11.30
2019-03-02T18:06:02.411Z,11.20
2019-03-02T18:08:39.016Z,11.20
2019-03-02T18:11:18.678Z,11.20
2019-03-02T18:13:49.543Z,11.20
2019-03-02T18:16:26.412Z,11.30
2019-03-02T18:18:55.632Z,11.30
2019-03-02T18:21:24.872Z,11.20
2019-03-02T18:23:55.766Z,11.20
2019-03-02T18:26:25.272Z,11.20
2019-03-02T18:28:54.655Z,11.20
2019-03-02T18:31:25.878Z,11.10
2019-03-02T18:33:56.574Z,11.10
2019-03-02T18:36:25.876Z,11.10
2019-03-02T18:38:55.089Z,11.10
2019-03-02T18:41:24.315Z,11.10
2019-03-02T18:43:53.527Z,11.10
2019-03-02T18:46:23.017Z,11.10
2019-03-02T18:49:13.938Z,11.20
2019-03-02T18:51:46.012Z,11.20
2019-03-02T18:54:16.032Z,11.20
2019-03-02T18:56:46.227Z,11.10
2019-03-02T18:59:15.504Z,11.10
2019-03-02T19:01:46.365Z,11.10
2019-03-02T19:04:18.540Z,11.10
2019-03-02T19:06:49.126Z,11.10
2019-03-02T19:09:18.527Z,11.10
2019-03-02T19:11:51.392Z,11.20
2019-03-02T19:14:21.059Z,11.10
2019-03-02T19:16:49.651Z,11.10
2019-03-02T19:19:19.200Z,11.10
2019-03-02T19:21:48.412Z,11.10
2019-03-02T19:24:17.615Z,11.10
2019-03-02T19:26:46.844Z,11.10
2019-03-02T19:29:16.039Z,11.10
2019-03-02T19:31:45.283Z,11.10
2019-03-02T19:34:14.479Z,11.00
2019-03-02T19:36:43.703Z,11.00
2019-03-02T19:39:18.701Z,11.00
2019-03-02T19:41:47.919Z,10.90
2019-03-02T19:44:17.115Z,10.90
2019-03-02T19:46:46.341Z,10.80
2019-03-02T19:49:15.611Z,10.70
2019-03-02T19:51:44.836Z,10.70
2019-03-02T19:54:14.047Z,10.70
2019-03-02T19:56:43.271Z,10.70
2019-03-02T19:59:12.539Z,10.70
2019-03-02T20:01:43.792Z,10.80
2019-03-02T20:04:13.121Z,10.80
2019-03-02T20:06:42.353Z,10.80
2019-03-02T20:09:12.694Z,10.80
2019-03-02T20:11:42.228Z,10.80
2019-03-02T20:14:11.637Z,10.80
2019-03-02T20:16:40.903Z,10.80
2019-03-02T20:19:10.126Z,10.90
2019-03-02T20:21:39.342Z,10.90
2019-03-02T20:24:08.944Z,10.90
2019-03-02T20:26:38.181Z,10.90
2019-03-02T20:29:07.391Z,10.90
2019-03-02T20:31:36.624Z,10.90
2019-03-02T20:34:05.836Z,10.90
2019-03-02T20:36:35.136Z,10.90
2019-03-02T20:39:06.665Z,10.90
2019-03-02T20:41:37.508Z,10.90
2019-03-02T20:44:06.724Z,10.90
2019-03-02T20:46:35.951Z,10.90
2019-03-02T20:49:05.181Z,10.90
2019-03-02T20:51:34.471Z,10.90
2019-03-02T20:54:03.703Z,10.90
2019-03-02T20:56:32.900Z,11.00
2019-03-02T20:59:02.299Z,11.00
2019-03-02T21:01:31.844Z,11.10
2019-03-02T21:04:01.162Z,11.20
2019-03-02T21:06:30.769Z,11.20
2019-03-02T21:09:00.001Z,11.20
2019-03-02T21:11:29.386Z,11.20
2019-03-02T21:13:58.738Z,11.20
2019-03-02T21:16:27.956Z,11.20
2019-03-02T21:18:57.155Z,11.20
2019-03-02T21:21:26.376Z,11.30
2019-03-02T21:23:55.748Z,11.30
2019-03-02T21:26:25.039Z,11.30
2019-03-02T21:28:54.245Z,11.40
2019-03-02T21:31:23.482Z,11.40
2019-03-02T21:33:52.976Z,11.40
2019-03-02T21:36:22.178Z,11.40
2019-03-02T21:38:51.405Z,11.40
2019-03-02T21:41:20.603Z,11.30
2019-03-02T21:43:50.288Z,11.30
2019-03-02T21:46:19.559Z,11.30
2019-03-02T21:48:49.306Z,11.20
2019-03-02T21:51:20.911Z,11.20
2019-03-02T21:53:50.151Z,11.10
2019-03-02T21:56:19.348Z,11.00
2019-03-02T21:58:48.576Z,11.00
2019-03-02T22:01:17.807Z,11.00
2019-03-02T22:03:47.101Z,11.00
2019-03-02T22:06:16.391Z,11.00
2019-03-02T22:08:45.596Z,11.00
2019-03-02T22:11:15.864Z,11.10
2019-03-02T22:13:45.067Z,11.20
2019-03-02T22:16:14.301Z,11.20
2019-03-02T22:18:43.524Z,11.20
2019-03-02T22:21:12.755Z,11.30
2019-03-02T22:23:41.958Z,11.30
2019-03-02T22:26:11.188Z,11.30
2019-03-02T22:28:43.755Z,11.40
2019-03-02T22:31:12.998Z,11.40
2019-03-02T22:33:42.226Z,11.40
2019-03-02T22:36:11.450Z,11.40
2019-03-02T22:38:40.757Z,11.30
2019-03-02T22:41:09.951Z,11.20
2019-03-02T22:43:39.179Z,11.20
2019-03-02T22:46:08.380Z,11.20
2019-03-02T22:48:37.589Z,11.20
2019-03-02T22:51:06.816Z,11.20
2019-03-02T22:53:36.119Z,11.20
2019-03-02T22:56:05.337Z,11.10
2019-03-02T22:58:34.075Z,11.10
2019-03-02T23:01:21.947Z,11.10
2019-03-02T23:03:51.170Z,11.10
2019-03-02T23:06:20.395Z,11.10
2019-03-02T23:08:49.599Z,11.10
2019-03-02T23:11:18.833Z,11.20
2019-03-02T23:13:48.037Z,11.10
2019-03-02T23:16:17.255Z,11.20
2019-03-02T23:18:47.551Z,11.10
2019-03-02T23:21:16.789Z,11.10
2019-03-02T23:23:45.991Z,11.00
2019-03-02T23:26:15.521Z,11.00
2019-03-02T23:28:44.749Z,10.90
2019-03-02T23:31:13.972Z,10.80
2019-03-02T23:33:43.203Z,10.70
2019-03-02T23:36:12.408Z,10.60
2019-03-02T23:38:41.640Z,10.50
2019-03-02T23:41:10.867Z,10.40
2019-03-02T23:43:40.102Z,10.30
2019-03-02T23:46:09.299Z,10.20
2019-03-02T23:48:38.523Z,10.20
2019-03-02T23:51:07.734Z,10.20
2019-03-02T23:53:36.961Z,10.10
2019-03-02T23:56:06.160Z,10.10
2019-03-02T23:58:35.388Z,10.00
